sensor_id;sensor_type;location;lat;lon;timestamp;P1;durP1;ratioP1;P2;durP2;ratioP2
55537;SDS011;41383;51.418;7.286;2023-06-22T00:02:04;12.13;;;5.83;;
55537;SDS011;41383;51.418;7.286;2023-06-22T00:04:29;14.30;;;6.82;;
55537;SDS011;41383;51.418;7.286;2023-06-22T00:06:55;8.70;;;5.60;;
55537;SDS011;41383;51.418;7.286;2023-06-22T00:09:20;11.13;;;6.70;;
55537;SDS011;41383;51.418;7.286;2023-06-22T00:11:45;14.13;;;6.73;;
55537;SDS011;41383;51.418;7.286;2023-06-22T00:14:10;11.23;;;6.10;;
55537;SDS011;41383;51.418;7.286;2023-06-22T00:16:36;10.47;;;6.03;;
55537;SDS011;41383;51.418;7.286;2023-06-22T00:19:01;9.20;;;5.50;;
55537;SDS011;41383;51.418;7.286;2023-06-22T00:21:27;12.98;;;6.97;;
55537;SDS011;41383;51.418;7.286;2023-06-22T00:23:52;10.88;;;6.28;;
55537;SDS011;41383;51.418;7.286;2023-06-22T00:26:18;10.90;;;6.20;;
55537;SDS011;41383;51.418;7.286;2023-06-22T00:28:44;13.57;;;6.93;;
55537;SDS011;41383;51.418;7.286;2023-06-22T00:31:09;11.68;;;6.13;;
55537;SDS011;41383;51.418;7.286;2023-06-22T00:33:35;9.93;;;5.70;;
55537;SDS011;41383;51.418;7.286;2023-06-22T00:36:00;10.87;;;6.67;;
55537;SDS011;41383;51.418;7.286;2023-06-22T00:38:27;10.32;;;5.55;;
55537;SDS011;41383;51.418;7.286;2023-06-22T00:40:53;10.80;;;6.40;;
55537;SDS011;41383;51.418;7.286;2023-06-22T00:43:18;10.43;;;5.87;;
55537;SDS011;41383;51.418;7.286;2023-06-22T00:45:43;9.70;;;6.77;;
55537;SDS011;41383;51.418;7.286;2023-06-22T00:48:09;13.13;;;8.00;;
55537;SDS011;41383;51.418;7.286;2023-06-22T00:50:34;12.95;;;7.90;;
55537;SDS011;41383;51.418;7.286;2023-06-22T00:53:04;10.20;;;6.32;;
55537;SDS011;41383;51.418;7.286;2023-06-22T00:55:41;12.68;;;6.38;;
55537;SDS011;41383;51.418;7.286;2023-06-22T00:58:11;9.85;;;5.80;;
55537;SDS011;41383;51.418;7.286;2023-06-22T01:00:38;9.13;;;6.00;;
55537;SDS011;41383;51.418;7.286;2023-06-22T01:03:04;14.20;;;6.18;;
55537;SDS011;41383;51.418;7.286;2023-06-22T01:05:33;9.75;;;7.00;;
55537;SDS011;41383;51.418;7.286;2023-06-22T01:11:16;12.55;;;7.28;;
55537;SDS011;41383;51.418;7.286;2023-06-22T01:16:16;11.43;;;6.97;;
55537;SDS011;41383;51.418;7.286;2023-06-22T01:18:43;10.43;;;6.30;;
55537;SDS011;41383;51.418;7.286;2023-06-22T01:21:09;9.45;;;6.95;;
55537;SDS011;41383;51.418;7.286;2023-06-22T01:26:36;12.13;;;6.40;;
55537;SDS011;41383;51.418;7.286;2023-06-22T01:29:06;10.90;;;6.68;;
55537;SDS011;41383;51.418;7.286;2023-06-22T01:31:33;11.15;;;7.00;;
55537;SDS011;41383;51.418;7.286;2023-06-22T01:34:00;13.93;;;8.10;;
55537;SDS011;41383;51.418;7.286;2023-06-22T01:36:28;12.75;;;8.95;;
55537;SDS011;41383;51.418;7.286;2023-06-22T01:38:55;11.35;;;7.05;;
55537;SDS011;41383;51.418;7.286;2023-06-22T01:41:23;10.90;;;6.97;;
55537;SDS011;41383;51.418;7.286;2023-06-22T01:43:50;10.35;;;6.30;;
55537;SDS011;41383;51.418;7.286;2023-06-22T01:46:17;10.80;;;7.50;;
55537;SDS011;41383;51.418;7.286;2023-06-22T01:48:44;13.98;;;7.43;;
55537;SDS011;41383;51.418;7.286;2023-06-22T01:51:10;13.52;;;7.60;;
55537;SDS011;41383;51.418;7.286;2023-06-22T01:53:35;14.93;;;9.18;;
55537;SDS011;41383;51.418;7.286;2023-06-22T01:56:01;10.30;;;7.73;;
55537;SDS011;41383;51.418;7.286;2023-06-22T01:58:26;11.97;;;8.37;;
55537;SDS011;41383;51.418;7.286;2023-06-22T02:00:58;12.00;;;9.38;;
55537;SDS011;41383;51.418;7.286;2023-06-22T02:03:31;10.40;;;6.63;;
55537;SDS011;41383;51.418;7.286;2023-06-22T02:06:03;17.70;;;7.57;;
55537;SDS011;41383;51.418;7.286;2023-06-22T02:08:33;15.15;;;7.70;;
55537;SDS011;41383;51.418;7.286;2023-06-22T02:11:02;10.25;;;8.07;;
55537;SDS011;41383;51.418;7.286;2023-06-22T02:13:28;17.00;;;7.20;;
55537;SDS011;41383;51.418;7.286;2023-06-22T02:15:55;12.48;;;8.70;;
55537;SDS011;41383;51.418;7.286;2023-06-22T02:18:21;16.42;;;8.40;;
55537;SDS011;41383;51.418;7.286;2023-06-22T02:20:46;12.87;;;8.40;;
55537;SDS011;41383;51.418;7.286;2023-06-22T02:23:11;11.57;;;8.38;;
55537;SDS011;41383;51.418;7.286;2023-06-22T02:25:37;12.97;;;7.40;;
55537;SDS011;41383;51.418;7.286;2023-06-22T02:28:02;14.73;;;8.90;;
55537;SDS011;41383;51.418;7.286;2023-06-22T02:30:28;10.13;;;7.07;;
55537;SDS011;41383;51.418;7.286;2023-06-22T02:32:53;10.85;;;6.65;;
55537;SDS011;41383;51.418;7.286;2023-06-22T02:35:24;13.07;;;6.75;;
55537;SDS011;41383;51.418;7.286;2023-06-22T02:37:56;12.43;;;7.05;;
55537;SDS011;41383;51.418;7.286;2023-06-22T02:40:22;9.70;;;6.90;;
55537;SDS011;41383;51.418;7.286;2023-06-22T02:42:47;14.73;;;7.97;;
55537;SDS011;41383;51.418;7.286;2023-06-22T02:45:12;11.00;;;6.73;;
55537;SDS011;41383;51.418;7.286;2023-06-22T02:47:38;9.02;;;6.43;;
55537;SDS011;41383;51.418;7.286;2023-06-22T02:50:03;9.98;;;6.90;;
55537;SDS011;41383;51.418;7.286;2023-06-22T02:52:29;10.15;;;5.72;;
55537;SDS011;41383;51.418;7.286;2023-06-22T02:54:54;12.43;;;8.63;;
55537;SDS011;41383;51.418;7.286;2023-06-22T02:57:19;12.60;;;8.50;;
55537;SDS011;41383;51.418;7.286;2023-06-22T02:59:44;9.83;;;6.53;;
55537;SDS011;41383;51.418;7.286;2023-06-22T03:02:10;11.73;;;6.30;;
55537;SDS011;41383;51.418;7.286;2023-06-22T03:04:36;10.82;;;7.63;;
55537;SDS011;41383;51.418;7.286;2023-06-22T03:07:01;19.90;;;7.77;;
55537;SDS011;41383;51.418;7.286;2023-06-22T03:09:27;14.43;;;8.90;;
55537;SDS011;41383;51.418;7.286;2023-06-22T03:11:53;15.65;;;8.55;;
55537;SDS011;41383;51.418;7.286;2023-06-22T03:14:19;10.27;;;7.55;;
55537;SDS011;41383;51.418;7.286;2023-06-22T03:16:44;10.35;;;7.20;;
55537;SDS011;41383;51.418;7.286;2023-06-22T03:19:10;12.53;;;7.40;;
55537;SDS011;41383;51.418;7.286;2023-06-22T03:21:37;12.25;;;8.23;;
55537;SDS011;41383;51.418;7.286;2023-06-22T03:24:03;13.85;;;8.25;;
55537;SDS011;41383;51.418;7.286;2023-06-22T03:26:29;11.77;;;7.57;;
55537;SDS011;41383;51.418;7.286;2023-06-22T03:28:55;17.85;;;8.60;;
55537;SDS011;41383;51.418;7.286;2023-06-22T03:31:20;11.05;;;6.97;;
55537;SDS011;41383;51.418;7.286;2023-06-22T03:33:47;13.10;;;10.43;;
55537;SDS011;41383;51.418;7.286;2023-06-22T03:36:14;11.63;;;8.48;;
55537;SDS011;41383;51.418;7.286;2023-06-22T03:38:41;12.10;;;8.75;;
55537;SDS011;41383;51.418;7.286;2023-06-22T03:41:06;10.55;;;7.00;;
55537;SDS011;41383;51.418;7.286;2023-06-22T03:43:32;15.77;;;9.90;;
55537;SDS011;41383;51.418;7.286;2023-06-22T03:45:57;15.50;;;8.38;;
55537;SDS011;41383;51.418;7.286;2023-06-22T03:48:22;11.43;;;7.63;;
55537;SDS011;41383;51.418;7.286;2023-06-22T03:50:47;12.07;;;9.00;;
55537;SDS011;41383;51.418;7.286;2023-06-22T03:53:13;14.03;;;8.47;;
55537;SDS011;41383;51.418;7.286;2023-06-22T03:55:40;10.97;;;8.10;;
55537;SDS011;41383;51.418;7.286;2023-06-22T03:58:12;12.77;;;8.35;;
55537;SDS011;41383;51.418;7.286;2023-06-22T04:00:38;14.73;;;9.53;;
55537;SDS011;41383;51.418;7.286;2023-06-22T04:03:03;13.83;;;9.23;;
55537;SDS011;41383;51.418;7.286;2023-06-22T04:05:28;12.18;;;7.80;;
55537;SDS011;41383;51.418;7.286;2023-06-22T04:07:54;8.75;;;7.60;;
55537;SDS011;41383;51.418;7.286;2023-06-22T04:10:19;13.27;;;7.93;;
55537;SDS011;41383;51.418;7.286;2023-06-22T04:12:44;14.02;;;8.00;;
55537;SDS011;41383;51.418;7.286;2023-06-22T04:15:09;10.20;;;7.07;;
55537;SDS011;41383;51.418;7.286;2023-06-22T04:17:36;12.50;;;8.07;;
55537;SDS011;41383;51.418;7.286;2023-06-22T04:20:01;14.90;;;8.63;;
55537;SDS011;41383;51.418;7.286;2023-06-22T04:22:28;12.13;;;7.97;;
55537;SDS011;41383;51.418;7.286;2023-06-22T04:24:54;16.30;;;8.23;;
55537;SDS011;41383;51.418;7.286;2023-06-22T04:27:19;15.13;;;9.60;;
55537;SDS011;41383;51.418;7.286;2023-06-22T04:29:44;13.57;;;9.00;;
55537;SDS011;41383;51.418;7.286;2023-06-22T04:32:13;20.02;;;9.10;;
55537;SDS011;41383;51.418;7.286;2023-06-22T04:34:40;11.65;;;8.52;;
55537;SDS011;41383;51.418;7.286;2023-06-22T04:37:05;15.07;;;8.97;;
55537;SDS011;41383;51.418;7.286;2023-06-22T04:39:30;12.47;;;8.37;;
55537;SDS011;41383;51.418;7.286;2023-06-22T04:41:56;12.02;;;8.45;;
55537;SDS011;41383;51.418;7.286;2023-06-22T04:44:25;13.35;;;7.45;;
55537;SDS011;41383;51.418;7.286;2023-06-22T04:46:51;13.77;;;8.52;;
55537;SDS011;41383;51.418;7.286;2023-06-22T04:49:24;12.45;;;7.53;;
55537;SDS011;41383;51.418;7.286;2023-06-22T04:51:58;18.30;;;9.80;;
55537;SDS011;41383;51.418;7.286;2023-06-22T04:54:33;14.65;;;7.93;;
55537;SDS011;41383;51.418;7.286;2023-06-22T04:57:00;12.43;;;7.57;;
55537;SDS011;41383;51.418;7.286;2023-06-22T04:59:27;11.40;;;7.63;;
55537;SDS011;41383;51.418;7.286;2023-06-22T05:01:55;11.23;;;7.30;;
55537;SDS011;41383;51.418;7.286;2023-06-22T05:04:21;12.88;;;8.48;;
55537;SDS011;41383;51.418;7.286;2023-06-22T05:06:50;12.57;;;8.88;;
55537;SDS011;41383;51.418;7.286;2023-06-22T05:09:16;16.75;;;8.90;;
55537;SDS011;41383;51.418;7.286;2023-06-22T05:11:42;13.15;;;9.70;;
55537;SDS011;41383;51.418;7.286;2023-06-22T05:14:08;9.68;;;7.25;;
55537;SDS011;41383;51.418;7.286;2023-06-22T05:16:33;14.55;;;8.93;;
55537;SDS011;41383;51.418;7.286;2023-06-22T05:18:58;11.70;;;8.02;;
55537;SDS011;41383;51.418;7.286;2023-06-22T05:21:25;12.80;;;8.50;;
55537;SDS011;41383;51.418;7.286;2023-06-22T05:23:51;15.20;;;8.50;;
55537;SDS011;41383;51.418;7.286;2023-06-22T05:26:18;9.98;;;6.63;;
55537;SDS011;41383;51.418;7.286;2023-06-22T05:28:44;12.43;;;7.15;;
55537;SDS011;41383;51.418;7.286;2023-06-22T05:31:11;12.00;;;7.55;;
55537;SDS011;41383;51.418;7.286;2023-06-22T05:33:40;12.05;;;6.80;;
55537;SDS011;41383;51.418;7.286;2023-06-22T05:36:09;10.43;;;7.28;;
55537;SDS011;41383;51.418;7.286;2023-06-22T05:38:35;13.38;;;7.90;;
55537;SDS011;41383;51.418;7.286;2023-06-22T05:41:01;10.27;;;6.68;;
55537;SDS011;41383;51.418;7.286;2023-06-22T05:43:26;11.10;;;7.80;;
55537;SDS011;41383;51.418;7.286;2023-06-22T05:45:51;11.07;;;6.53;;
55537;SDS011;41383;51.418;7.286;2023-06-22T05:48:17;11.37;;;6.90;;
55537;SDS011;41383;51.418;7.286;2023-06-22T05:50:42;9.65;;;6.50;;
55537;SDS011;41383;51.418;7.286;2023-06-22T05:53:07;12.25;;;6.80;;
55537;SDS011;41383;51.418;7.286;2023-06-22T05:55:33;11.20;;;7.35;;
55537;SDS011;41383;51.418;7.286;2023-06-22T05:57:58;12.38;;;6.43;;
55537;SDS011;41383;51.418;7.286;2023-06-22T06:00:23;11.55;;;7.30;;
55537;SDS011;41383;51.418;7.286;2023-06-22T06:02:49;9.73;;;6.50;;
55537;SDS011;41383;51.418;7.286;2023-06-22T06:05:14;10.73;;;7.18;;
55537;SDS011;41383;51.418;7.286;2023-06-22T06:07:40;11.38;;;7.07;;
55537;SDS011;41383;51.418;7.286;2023-06-22T06:10:10;12.63;;;6.80;;
55537;SDS011;41383;51.418;7.286;2023-06-22T06:12:35;12.20;;;6.53;;
55537;SDS011;41383;51.418;7.286;2023-06-22T06:15:01;11.97;;;7.53;;
55537;SDS011;41383;51.418;7.286;2023-06-22T06:17:27;10.30;;;7.70;;
55537;SDS011;41383;51.418;7.286;2023-06-22T06:19:52;11.82;;;6.93;;
55537;SDS011;41383;51.418;7.286;2023-06-22T06:22:17;13.27;;;7.75;;
55537;SDS011;41383;51.418;7.286;2023-06-22T06:24:44;11.02;;;7.38;;
55537;SDS011;41383;51.418;7.286;2023-06-22T06:27:09;11.63;;;6.65;;
55537;SDS011;41383;51.418;7.286;2023-06-22T06:29:34;10.50;;;7.10;;
55537;SDS011;41383;51.418;7.286;2023-06-22T06:31:59;9.97;;;6.23;;
55537;SDS011;41383;51.418;7.286;2023-06-22T06:34:25;13.07;;;7.60;;
55537;SDS011;41383;51.418;7.286;2023-06-22T06:36:50;11.90;;;8.30;;
55537;SDS011;41383;51.418;7.286;2023-06-22T06:39:15;12.97;;;9.07;;
55537;SDS011;41383;51.418;7.286;2023-06-22T06:41:41;11.98;;;8.27;;
55537;SDS011;41383;51.418;7.286;2023-06-22T06:44:06;12.35;;;7.93;;
55537;SDS011;41383;51.418;7.286;2023-06-22T06:46:32;15.23;;;9.27;;
55537;SDS011;41383;51.418;7.286;2023-06-22T06:48:57;11.73;;;7.73;;
55537;SDS011;41383;51.418;7.286;2023-06-22T06:51:22;17.20;;;9.05;;
55537;SDS011;41383;51.418;7.286;2023-06-22T06:53:47;16.15;;;8.73;;
55537;SDS011;41383;51.418;7.286;2023-06-22T06:56:13;13.83;;;8.03;;
55537;SDS011;41383;51.418;7.286;2023-06-22T06:58:41;15.07;;;9.90;;
55537;SDS011;41383;51.418;7.286;2023-06-22T07:01:10;18.75;;;10.00;;
55537;SDS011;41383;51.418;7.286;2023-06-22T07:03:36;14.75;;;10.55;;
55537;SDS011;41383;51.418;7.286;2023-06-22T07:06:02;18.47;;;10.77;;
55537;SDS011;41383;51.418;7.286;2023-06-22T07:08:27;16.40;;;10.52;;
55537;SDS011;41383;51.418;7.286;2023-06-22T07:10:52;16.50;;;9.83;;
55537;SDS011;41383;51.418;7.286;2023-06-22T07:13:17;14.17;;;9.40;;
55537;SDS011;41383;51.418;7.286;2023-06-22T07:15:43;16.87;;;10.87;;
55537;SDS011;41383;51.418;7.286;2023-06-22T07:18:08;31.13;;;10.60;;
55537;SDS011;41383;51.418;7.286;2023-06-22T07:20:33;14.15;;;10.20;;
55537;SDS011;41383;51.418;7.286;2023-06-22T07:22:59;16.23;;;9.70;;
55537;SDS011;41383;51.418;7.286;2023-06-22T07:25:24;14.30;;;9.53;;
55537;SDS011;41383;51.418;7.286;2023-06-22T07:28:00;12.85;;;9.40;;
55537;SDS011;41383;51.418;7.286;2023-06-22T07:30:27;14.00;;;9.70;;
55537;SDS011;41383;51.418;7.286;2023-06-22T07:32:53;21.58;;;12.68;;
55537;SDS011;41383;51.418;7.286;2023-06-22T07:35:18;18.17;;;11.55;;
55537;SDS011;41383;51.418;7.286;2023-06-22T07:37:44;19.30;;;10.52;;
55537;SDS011;41383;51.418;7.286;2023-06-22T07:40:09;22.20;;;11.82;;
55537;SDS011;41383;51.418;7.286;2023-06-22T07:42:35;18.50;;;10.07;;
55537;SDS011;41383;51.418;7.286;2023-06-22T07:45:01;16.40;;;10.98;;
55537;SDS011;41383;51.418;7.286;2023-06-22T07:47:28;15.02;;;11.10;;
55537;SDS011;41383;51.418;7.286;2023-06-22T07:49:54;19.10;;;10.77;;
55537;SDS011;41383;51.418;7.286;2023-06-22T07:52:20;18.90;;;12.10;;
55537;SDS011;41383;51.418;7.286;2023-06-22T07:54:46;21.40;;;13.73;;
55537;SDS011;41383;51.418;7.286;2023-06-22T07:57:11;18.02;;;13.98;;
55537;SDS011;41383;51.418;7.286;2023-06-22T07:59:37;18.98;;;12.00;;
55537;SDS011;41383;51.418;7.286;2023-06-22T08:02:02;16.65;;;10.98;;
55537;SDS011;41383;51.418;7.286;2023-06-22T08:04:28;18.15;;;10.65;;
55537;SDS011;41383;51.418;7.286;2023-06-22T08:06:53;18.10;;;11.43;;
55537;SDS011;41383;51.418;7.286;2023-06-22T08:09:19;18.15;;;13.27;;
55537;SDS011;41383;51.418;7.286;2023-06-22T08:11:44;17.17;;;10.87;;
55537;SDS011;41383;51.418;7.286;2023-06-22T08:14:09;24.77;;;11.88;;
55537;SDS011;41383;51.418;7.286;2023-06-22T08:16:35;17.40;;;12.40;;
55537;SDS011;41383;51.418;7.286;2023-06-22T08:19:00;20.17;;;12.80;;
55537;SDS011;41383;51.418;7.286;2023-06-22T08:21:25;19.67;;;12.67;;
55537;SDS011;41383;51.418;7.286;2023-06-22T08:23:51;21.23;;;14.47;;
55537;SDS011;41383;51.418;7.286;2023-06-22T08:26:16;18.53;;;12.93;;
55537;SDS011;41383;51.418;7.286;2023-06-22T08:28:41;16.67;;;12.60;;
55537;SDS011;41383;51.418;7.286;2023-06-22T08:31:06;18.80;;;12.00;;
55537;SDS011;41383;51.418;7.286;2023-06-22T08:33:32;19.77;;;12.93;;
55537;SDS011;41383;51.418;7.286;2023-06-22T08:35:58;17.33;;;10.88;;
55537;SDS011;41383;51.418;7.286;2023-06-22T08:38:24;17.58;;;13.52;;
55537;SDS011;41383;51.418;7.286;2023-06-22T08:40:49;22.52;;;14.48;;
55537;SDS011;41383;51.418;7.286;2023-06-22T08:43:15;16.67;;;11.45;;
55537;SDS011;41383;51.418;7.286;2023-06-22T08:45:40;19.10;;;12.27;;
55537;SDS011;41383;51.418;7.286;2023-06-22T08:48:05;16.83;;;12.37;;
55537;SDS011;41383;51.418;7.286;2023-06-22T08:50:31;20.53;;;14.40;;
55537;SDS011;41383;51.418;7.286;2023-06-22T08:52:56;19.40;;;13.48;;
55537;SDS011;41383;51.418;7.286;2023-06-22T08:55:21;17.77;;;14.37;;
55537;SDS011;41383;51.418;7.286;2023-06-22T08:57:46;16.40;;;11.40;;
55537;SDS011;41383;51.418;7.286;2023-06-22T09:00:12;20.50;;;12.83;;
55537;SDS011;41383;51.418;7.286;2023-06-22T09:02:42;17.88;;;12.27;;
55537;SDS011;41383;51.418;7.286;2023-06-22T09:05:08;14.80;;;11.23;;
55537;SDS011;41383;51.418;7.286;2023-06-22T09:07:34;16.23;;;11.13;;
55537;SDS011;41383;51.418;7.286;2023-06-22T09:09:59;16.10;;;11.07;;
55537;SDS011;41383;51.418;7.286;2023-06-22T09:12:25;14.90;;;9.27;;
55537;SDS011;41383;51.418;7.286;2023-06-22T09:14:52;18.20;;;10.45;;
55537;SDS011;41383;51.418;7.286;2023-06-22T09:17:17;21.75;;;11.32;;
55537;SDS011;41383;51.418;7.286;2023-06-22T09:19:42;15.23;;;9.85;;
55537;SDS011;41383;51.418;7.286;2023-06-22T09:22:07;11.63;;;8.70;;
55537;SDS011;41383;51.418;7.286;2023-06-22T09:24:33;13.53;;;8.27;;
55537;SDS011;41383;51.418;7.286;2023-06-22T09:26:58;12.37;;;8.53;;
55537;SDS011;41383;51.418;7.286;2023-06-22T09:29:24;13.27;;;9.32;;
55537;SDS011;41383;51.418;7.286;2023-06-22T09:31:49;13.73;;;8.85;;
55537;SDS011;41383;51.418;7.286;2023-06-22T09:34:14;12.27;;;8.67;;
55537;SDS011;41383;51.418;7.286;2023-06-22T09:36:45;13.25;;;8.98;;
55537;SDS011;41383;51.418;7.286;2023-06-22T09:39:10;14.30;;;10.02;;
55537;SDS011;41383;51.418;7.286;2023-06-22T09:41:35;13.57;;;8.83;;
55537;SDS011;41383;51.418;7.286;2023-06-22T09:44:00;13.33;;;8.33;;
55537;SDS011;41383;51.418;7.286;2023-06-22T09:46:26;15.87;;;7.10;;
55537;SDS011;41383;51.418;7.286;2023-06-22T09:48:51;18.00;;;7.90;;
55537;SDS011;41383;51.418;7.286;2023-06-22T09:51:16;11.80;;;8.40;;
55537;SDS011;41383;51.418;7.286;2023-06-22T09:53:41;15.90;;;8.63;;
55537;SDS011;41383;51.418;7.286;2023-06-22T09:56:07;13.50;;;7.93;;
55537;SDS011;41383;51.418;7.286;2023-06-22T09:58:36;9.70;;;7.35;;
55537;SDS011;41383;51.418;7.286;2023-06-22T10:01:01;12.00;;;6.50;;
55537;SDS011;41383;51.418;7.286;2023-06-22T10:03:26;12.67;;;7.50;;
55537;SDS011;41383;51.418;7.286;2023-06-22T10:05:52;12.57;;;6.78;;
55537;SDS011;41383;51.418;7.286;2023-06-22T10:08:17;12.57;;;7.28;;
55537;SDS011;41383;51.418;7.286;2023-06-22T10:10:42;10.33;;;7.00;;
55537;SDS011;41383;51.418;7.286;2023-06-22T10:13:08;14.47;;;8.20;;
55537;SDS011;41383;51.418;7.286;2023-06-22T10:15:35;9.82;;;6.38;;
55537;SDS011;41383;51.418;7.286;2023-06-22T10:18:00;8.57;;;5.70;;
55537;SDS011;41383;51.418;7.286;2023-06-22T10:20:26;9.70;;;6.70;;
55537;SDS011;41383;51.418;7.286;2023-06-22T10:22:51;12.55;;;6.65;;
55537;SDS011;41383;51.418;7.286;2023-06-22T10:25:16;11.10;;;6.40;;
55537;SDS011;41383;51.418;7.286;2023-06-22T10:27:42;13.17;;;6.57;;
55537;SDS011;41383;51.418;7.286;2023-06-22T10:30:08;11.85;;;6.88;;
55537;SDS011;41383;51.418;7.286;2023-06-22T10:32:34;9.23;;;5.70;;
55537;SDS011;41383;51.418;7.286;2023-06-22T10:34:59;10.18;;;7.07;;
55537;SDS011;41383;51.418;7.286;2023-06-22T10:37:24;12.70;;;8.07;;
55537;SDS011;41383;51.418;7.286;2023-06-22T10:39:50;11.03;;;7.23;;
55537;SDS011;41383;51.418;7.286;2023-06-22T10:42:15;10.07;;;6.40;;
55537;SDS011;41383;51.418;7.286;2023-06-22T10:44:40;12.50;;;6.23;;
55537;SDS011;41383;51.418;7.286;2023-06-22T10:47:08;12.00;;;8.20;;
55537;SDS011;41383;51.418;7.286;2023-06-22T10:49:33;10.15;;;6.63;;
55537;SDS011;41383;51.418;7.286;2023-06-22T10:51:58;13.57;;;7.93;;
55537;SDS011;41383;51.418;7.286;2023-06-22T10:54:24;11.73;;;7.37;;
55537;SDS011;41383;51.418;7.286;2023-06-22T10:56:49;14.07;;;7.83;;
55537;SDS011;41383;51.418;7.286;2023-06-22T10:59:14;10.30;;;7.63;;
55537;SDS011;41383;51.418;7.286;2023-06-22T11:01:39;11.83;;;7.23;;
55537;SDS011;41383;51.418;7.286;2023-06-22T11:04:05;15.73;;;7.67;;
55537;SDS011;41383;51.418;7.286;2023-06-22T11:06:30;9.83;;;7.00;;
55537;SDS011;41383;51.418;7.286;2023-06-22T11:08:55;11.47;;;7.40;;
55537;SDS011;41383;51.418;7.286;2023-06-22T11:11:20;12.15;;;8.68;;
55537;SDS011;41383;51.418;7.286;2023-06-22T11:13:46;12.03;;;7.97;;
55537;SDS011;41383;51.418;7.286;2023-06-22T11:16:11;9.87;;;7.50;;
55537;SDS011;41383;51.418;7.286;2023-06-22T11:18:36;11.57;;;8.00;;
55537;SDS011;41383;51.418;7.286;2023-06-22T11:21:02;13.38;;;9.10;;
55537;SDS011;41383;51.418;7.286;2023-06-22T11:23:27;11.65;;;8.07;;
55537;SDS011;41383;51.418;7.286;2023-06-22T11:25:53;14.80;;;9.13;;
55537;SDS011;41383;51.418;7.286;2023-06-22T11:28:19;13.77;;;10.32;;
55537;SDS011;41383;51.418;7.286;2023-06-22T11:30:44;16.70;;;9.87;;
55537;SDS011;41383;51.418;7.286;2023-06-22T11:33:09;16.77;;;10.30;;
55537;SDS011;41383;51.418;7.286;2023-06-22T11:35:35;18.77;;;10.07;;
55537;SDS011;41383;51.418;7.286;2023-06-22T11:38:00;19.47;;;11.33;;
55537;SDS011;41383;51.418;7.286;2023-06-22T11:40:25;20.37;;;11.53;;
55537;SDS011;41383;51.418;7.286;2023-06-22T11:42:51;18.08;;;11.88;;
55537;SDS011;41383;51.418;7.286;2023-06-22T11:45:16;14.90;;;10.90;;
55537;SDS011;41383;51.418;7.286;2023-06-22T11:47:43;18.63;;;12.77;;
55537;SDS011;41383;51.418;7.286;2023-06-22T11:50:08;15.98;;;11.90;;
55537;SDS011;41383;51.418;7.286;2023-06-22T11:52:34;17.00;;;11.52;;
55537;SDS011;41383;51.418;7.286;2023-06-22T11:55:01;19.02;;;12.32;;
55537;SDS011;41383;51.418;7.286;2023-06-22T11:57:28;18.60;;;12.80;;
55537;SDS011;41383;51.418;7.286;2023-06-22T11:59:53;19.70;;;11.60;;
55537;SDS011;41383;51.418;7.286;2023-06-22T12:02:19;26.10;;;14.70;;
55537;SDS011;41383;51.418;7.286;2023-06-22T12:04:44;17.23;;;11.53;;
55537;SDS011;41383;51.418;7.286;2023-06-22T12:07:09;17.77;;;11.77;;
55537;SDS011;41383;51.418;7.286;2023-06-22T12:09:34;13.53;;;9.57;;
55537;SDS011;41383;51.418;7.286;2023-06-22T12:12:00;18.53;;;11.30;;
55537;SDS011;41383;51.418;7.286;2023-06-22T12:14:25;17.33;;;9.87;;
55537;SDS011;41383;51.418;7.286;2023-06-22T12:16:50;18.60;;;11.97;;
55537;SDS011;41383;51.418;7.286;2023-06-22T12:19:15;19.10;;;11.27;;
55537;SDS011;41383;51.418;7.286;2023-06-22T12:21:41;17.60;;;11.23;;
55537;SDS011;41383;51.418;7.286;2023-06-22T12:24:06;18.40;;;11.13;;
55537;SDS011;41383;51.418;7.286;2023-06-22T12:26:31;13.93;;;9.80;;
55537;SDS011;41383;51.418;7.286;2023-06-22T12:28:56;18.17;;;9.73;;
55537;SDS011;41383;51.418;7.286;2023-06-22T12:31:22;17.23;;;12.83;;
55537;SDS011;41383;51.418;7.286;2023-06-22T12:33:47;18.80;;;12.68;;
55537;SDS011;41383;51.418;7.286;2023-06-22T12:36:13;19.27;;;11.50;;
55537;SDS011;41383;51.418;7.286;2023-06-22T12:38:38;16.67;;;9.88;;
55537;SDS011;41383;51.418;7.286;2023-06-22T12:41:03;18.97;;;10.37;;
55537;SDS011;41383;51.418;7.286;2023-06-22T12:43:28;15.23;;;10.50;;
55537;SDS011;41383;51.418;7.286;2023-06-22T12:45:54;16.93;;;11.43;;
55537;SDS011;41383;51.418;7.286;2023-06-22T12:48:19;14.60;;;9.27;;
55537;SDS011;41383;51.418;7.286;2023-06-22T12:50:45;19.43;;;10.03;;
55537;SDS011;41383;51.418;7.286;2023-06-22T12:53:11;15.23;;;10.60;;
55537;SDS011;41383;51.418;7.286;2023-06-22T12:55:36;16.70;;;10.60;;
55537;SDS011;41383;51.418;7.286;2023-06-22T12:58:02;16.43;;;10.17;;
55537;SDS011;41383;51.418;7.286;2023-06-22T13:00:27;15.33;;;9.80;;
55537;SDS011;41383;51.418;7.286;2023-06-22T13:02:52;14.95;;;11.65;;
55537;SDS011;41383;51.418;7.286;2023-06-22T13:05:18;28.42;;;10.27;;
55537;SDS011;41383;51.418;7.286;2023-06-22T13:07:43;17.08;;;10.77;;
55537;SDS011;41383;51.418;7.286;2023-06-22T13:10:09;17.42;;;9.50;;
55537;SDS011;41383;51.418;7.286;2023-06-22T13:12:34;17.45;;;10.02;;
55537;SDS011;41383;51.418;7.286;2023-06-22T13:14:59;18.13;;;11.70;;
55537;SDS011;41383;51.418;7.286;2023-06-22T13:17:25;15.00;;;10.35;;
55537;SDS011;41383;51.418;7.286;2023-06-22T13:19:50;24.40;;;12.53;;
55537;SDS011;41383;51.418;7.286;2023-06-22T13:25:10;14.30;;;10.20;;
55537;SDS011;41383;51.418;7.286;2023-06-22T13:27:38;17.73;;;12.02;;
55537;SDS011;41383;51.418;7.286;2023-06-22T13:30:04;13.77;;;10.65;;
55537;SDS011;41383;51.418;7.286;2023-06-22T13:32:30;17.15;;;10.15;;
55537;SDS011;41383;51.418;7.286;2023-06-22T13:34:55;14.77;;;10.37;;
55537;SDS011;41383;51.418;7.286;2023-06-22T13:37:20;15.43;;;9.97;;
55537;SDS011;41383;51.418;7.286;2023-06-22T13:39:45;14.53;;;11.33;;
55537;SDS011;41383;51.418;7.286;2023-06-22T13:42:11;12.43;;;9.20;;
55537;SDS011;41383;51.418;7.286;2023-06-22T13:44:36;14.27;;;10.95;;
55537;SDS011;41383;51.418;7.286;2023-06-22T13:47:01;16.23;;;11.13;;
55537;SDS011;41383;51.418;7.286;2023-06-22T13:49:27;14.55;;;9.20;;
55537;SDS011;41383;51.418;7.286;2023-06-22T13:51:52;17.03;;;10.57;;
55537;SDS011;41383;51.418;7.286;2023-06-22T13:54:17;16.67;;;10.77;;
55537;SDS011;41383;51.418;7.286;2023-06-22T13:56:42;16.97;;;11.67;;
55537;SDS011;41383;51.418;7.286;2023-06-22T13:59:07;15.30;;;10.73;;
55537;SDS011;41383;51.418;7.286;2023-06-22T14:01:34;15.48;;;9.60;;
55537;SDS011;41383;51.418;7.286;2023-06-22T14:04:00;16.52;;;9.73;;
55537;SDS011;41383;51.418;7.286;2023-06-22T14:06:27;16.45;;;10.55;;
55537;SDS011;41383;51.418;7.286;2023-06-22T14:08:52;15.32;;;10.50;;
55537;SDS011;41383;51.418;7.286;2023-06-22T14:11:18;11.60;;;8.17;;
55537;SDS011;41383;51.418;7.286;2023-06-22T14:13:43;15.73;;;9.30;;
55537;SDS011;41383;51.418;7.286;2023-06-22T14:16:08;16.87;;;10.13;;
55537;SDS011;41383;51.418;7.286;2023-06-22T14:18:34;15.68;;;10.50;;
55537;SDS011;41383;51.418;7.286;2023-06-22T14:20:59;14.90;;;10.20;;
55537;SDS011;41383;51.418;7.286;2023-06-22T14:23:24;12.83;;;9.20;;
55537;SDS011;41383;51.418;7.286;2023-06-22T14:25:50;13.88;;;9.20;;
55537;SDS011;41383;51.418;7.286;2023-06-22T14:28:15;12.57;;;9.43;;
55537;SDS011;41383;51.418;7.286;2023-06-22T14:30:41;15.45;;;8.45;;
55537;SDS011;41383;51.418;7.286;2023-06-22T14:33:06;14.57;;;9.07;;
55537;SDS011;41383;51.418;7.286;2023-06-22T14:35:32;13.85;;;9.07;;